sensor_id;sensor_type;location;lat;lon;timestamp;P1;durP1;ratioP1;P2;durP2;ratioP2
53521;SDS011;39398;48.382;9.802;2024-03-17T00:02:02;17.70;;;12.25;;
53521;SDS011;39398;48.382;9.802;2024-03-17T00:07:05;15.05;;;11.07;;
53521;SDS011;39398;48.382;9.802;2024-03-17T00:12:06;15.70;;;11.15;;
53521;SDS011;39398;48.382;9.802;2024-03-17T00:17:09;15.02;;;10.52;;
53521;SDS011;39398;48.382;9.802;2024-03-17T00:22:11;17.02;;;11.40;;
53521;SDS011;39398;48.382;9.802;2024-03-17T00:27:13;17.80;;;12.07;;
53521;SDS011;39398;48.382;9.802;2024-03-17T00:32:15;19.13;;;12.63;;
53521;SDS011;39398;48.382;9.802;2024-03-17T00:37:18;17.98;;;12.68;;
53521;SDS011;39398;48.382;9.802;2024-03-17T00:42:19;20.45;;;13.13;;
53521;SDS011;39398;48.382;9.802;2024-03-17T00:47:21;20.40;;;12.68;;
53521;SDS011;39398;48.382;9.802;2024-03-17T00:52:22;19.38;;;13.15;;
53521;SDS011;39398;48.382;9.802;2024-03-17T00:57:24;19.67;;;13.43;;
53521;SDS011;39398;48.382;9.802;2024-03-17T01:02:26;21.45;;;13.90;;
53521;SDS011;39398;48.382;9.802;2024-03-17T01:07:27;19.48;;;12.82;;
53521;SDS011;39398;48.382;9.802;2024-03-17T01:12:30;17.70;;;12.57;;
53521;SDS011;39398;48.382;9.802;2024-03-17T01:17:31;18.55;;;13.20;;
53521;SDS011;39398;48.382;9.802;2024-03-17T01:22:33;18.13;;;12.57;;
53521;SDS011;39398;48.382;9.802;2024-03-17T01:27:35;17.73;;;13.27;;
53521;SDS011;39398;48.382;9.802;2024-03-17T01:32:36;18.00;;;12.73;;
53521;SDS011;39398;48.382;9.802;2024-03-17T01:37:38;18.17;;;12.95;;
53521;SDS011;39398;48.382;9.802;2024-03-17T01:42:40;19.77;;;14.02;;
53521;SDS011;39398;48.382;9.802;2024-03-17T01:47:42;18.17;;;13.05;;
53521;SDS011;39398;48.382;9.802;2024-03-17T01:52:45;17.83;;;12.93;;
53521;SDS011;39398;48.382;9.802;2024-03-17T01:57:49;18.17;;;13.07;;
53521;SDS011;39398;48.382;9.802;2024-03-17T02:02:51;17.02;;;12.20;;
53521;SDS011;39398;48.382;9.802;2024-03-17T02:07:53;17.15;;;12.43;;
53521;SDS011;39398;48.382;9.802;2024-03-17T02:12:54;17.08;;;12.60;;
53521;SDS011;39398;48.382;9.802;2024-03-17T02:17:56;19.83;;;13.05;;
53521;SDS011;39398;48.382;9.802;2024-03-17T02:22:58;18.20;;;12.82;;
53521;SDS011;39398;48.382;9.802;2024-03-17T02:28:00;16.08;;;11.63;;
53521;SDS011;39398;48.382;9.802;2024-03-17T02:33:02;14.95;;;10.50;;
53521;SDS011;39398;48.382;9.802;2024-03-17T02:38:04;14.63;;;11.00;;
53521;SDS011;39398;48.382;9.802;2024-03-17T02:43:08;17.85;;;11.70;;
53521;SDS011;39398;48.382;9.802;2024-03-17T02:48:09;15.48;;;11.48;;
53521;SDS011;39398;48.382;9.802;2024-03-17T02:53:11;18.17;;;12.73;;
53521;SDS011;39398;48.382;9.802;2024-03-17T02:58:13;20.55;;;13.27;;
53521;SDS011;39398;48.382;9.802;2024-03-17T03:03:14;21.15;;;15.07;;
53521;SDS011;39398;48.382;9.802;2024-03-17T03:08:16;19.48;;;13.52;;
53521;SDS011;39398;48.382;9.802;2024-03-17T03:13:18;23.33;;;15.40;;
53521;SDS011;39398;48.382;9.802;2024-03-17T03:18:19;25.50;;;15.15;;
53521;SDS011;39398;48.382;9.802;2024-03-17T03:23:21;25.27;;;15.80;;
53521;SDS011;39398;48.382;9.802;2024-03-17T03:28:23;20.25;;;14.13;;
53521;SDS011;39398;48.382;9.802;2024-03-17T03:33:26;20.40;;;13.65;;
53521;SDS011;39398;48.382;9.802;2024-03-17T03:38:27;21.33;;;13.63;;
53521;SDS011;39398;48.382;9.802;2024-03-17T03:43:29;17.38;;;12.98;;
53521;SDS011;39398;48.382;9.802;2024-03-17T03:48:31;23.20;;;14.05;;
53521;SDS011;39398;48.382;9.802;2024-03-17T03:53:34;20.23;;;14.43;;
53521;SDS011;39398;48.382;9.802;2024-03-17T03:58:37;23.80;;;15.68;;
53521;SDS011;39398;48.382;9.802;2024-03-17T04:03:40;26.95;;;15.60;;
53521;SDS011;39398;48.382;9.802;2024-03-17T04:08:42;27.75;;;17.17;;
53521;SDS011;39398;48.382;9.802;2024-03-17T04:13:44;24.92;;;15.90;;
53521;SDS011;39398;48.382;9.802;2024-03-17T04:18:47;24.70;;;14.73;;
53521;SDS011;39398;48.382;9.802;2024-03-17T04:23:48;31.13;;;16.42;;
53521;SDS011;39398;48.382;9.802;2024-03-17T04:28:50;24.88;;;15.68;;
53521;SDS011;39398;48.382;9.802;2024-03-17T04:33:52;33.13;;;17.52;;
53521;SDS011;39398;48.382;9.802;2024-03-17T04:38:54;28.35;;;17.95;;
53521;SDS011;39398;48.382;9.802;2024-03-17T04:43:56;30.38;;;16.40;;
53521;SDS011;39398;48.382;9.802;2024-03-17T04:48:57;28.20;;;16.85;;
53521;SDS011;39398;48.382;9.802;2024-03-17T04:53:59;29.35;;;17.13;;
53521;SDS011;39398;48.382;9.802;2024-03-17T04:59:01;29.90;;;17.20;;
53521;SDS011;39398;48.382;9.802;2024-03-17T05:04:03;29.02;;;17.15;;
53521;SDS011;39398;48.382;9.802;2024-03-17T05:09:04;30.85;;;17.30;;
53521;SDS011;39398;48.382;9.802;2024-03-17T05:14:06;29.85;;;17.05;;
53521;SDS011;39398;48.382;9.802;2024-03-17T05:19:07;29.00;;;17.25;;
53521;SDS011;39398;48.382;9.802;2024-03-17T05:24:09;30.67;;;17.20;;
53521;SDS011;39398;48.382;9.802;2024-03-17T05:29:11;27.30;;;17.08;;
53521;SDS011;39398;48.382;9.802;2024-03-17T05:34:13;28.02;;;17.50;;
53521;SDS011;39398;48.382;9.802;2024-03-17T05:39:14;28.65;;;17.85;;
53521;SDS011;39398;48.382;9.802;2024-03-17T05:44:17;29.33;;;19.45;;
53521;SDS011;39398;48.382;9.802;2024-03-17T05:49:19;37.00;;;17.63;;
53521;SDS011;39398;48.382;9.802;2024-03-17T05:54:21;29.17;;;17.48;;
53521;SDS011;39398;48.382;9.802;2024-03-17T05:59:24;31.73;;;17.42;;
53521;SDS011;39398;48.382;9.802;2024-03-17T06:04:26;27.35;;;18.20;;
53521;SDS011;39398;48.382;9.802;2024-03-17T06:09:27;26.40;;;18.10;;
53521;SDS011;39398;48.382;9.802;2024-03-17T06:14:29;28.42;;;17.83;;
53521;SDS011;39398;48.382;9.802;2024-03-17T06:19:31;26.10;;;17.00;;
53521;SDS011;39398;48.382;9.802;2024-03-17T06:24:32;28.27;;;18.05;;
53521;SDS011;39398;48.382;9.802;2024-03-17T06:29:34;32.95;;;18.13;;
53521;SDS011;39398;48.382;9.802;2024-03-17T06:34:36;27.80;;;18.27;;
53521;SDS011;39398;48.382;9.802;2024-03-17T06:39:37;30.73;;;17.80;;
53521;SDS011;39398;48.382;9.802;2024-03-17T06:44:39;46.42;;;18.55;;
53521;SDS011;39398;48.382;9.802;2024-03-17T06:49:41;38.90;;;18.10;;
53521;SDS011;39398;48.382;9.802;2024-03-17T06:54:43;40.13;;;19.02;;
53521;SDS011;39398;48.382;9.802;2024-03-17T06:59:45;30.13;;;18.60;;
53521;SDS011;39398;48.382;9.802;2024-03-17T07:04:48;31.10;;;18.98;;
53521;SDS011;39398;48.382;9.802;2024-03-17T07:09:50;27.35;;;18.35;;
53521;SDS011;39398;48.382;9.802;2024-03-17T07:14:52;22.90;;;16.60;;
53521;SDS011;39398;48.382;9.802;2024-03-17T07:19:53;27.83;;;15.57;;
53521;SDS011;39398;48.382;9.802;2024-03-17T07:24:55;26.98;;;16.42;;
53521;SDS011;39398;48.382;9.802;2024-03-17T07:30:00;23.33;;;13.35;;
53521;SDS011;39398;48.382;9.802;2024-03-17T07:35:02;22.83;;;13.35;;
53521;SDS011;39398;48.382;9.802;2024-03-17T07:40:04;22.60;;;14.65;;
53521;SDS011;39398;48.382;9.802;2024-03-17T07:45:08;26.05;;;13.40;;
53521;SDS011;39398;48.382;9.802;2024-03-17T07:50:11;20.92;;;13.02;;
53521;SDS011;39398;48.382;9.802;2024-03-17T07:55:13;22.50;;;16.38;;
53521;SDS011;39398;48.382;9.802;2024-03-17T08:00:15;17.95;;;14.10;;
53521;SDS011;39398;48.382;9.802;2024-03-17T08:05:16;18.60;;;13.73;;
53521;SDS011;39398;48.382;9.802;2024-03-17T08:10:18;21.52;;;14.80;;
53521;SDS011;39398;48.382;9.802;2024-03-17T08:15:20;19.13;;;14.15;;
53521;SDS011;39398;48.382;9.802;2024-03-17T08:20:21;23.38;;;15.60;;
53521;SDS011;39398;48.382;9.802;2024-03-17T08:25:23;19.05;;;13.18;;
53521;SDS011;39398;48.382;9.802;2024-03-17T08:30:25;19.17;;;12.98;;
53521;SDS011;39398;48.382;9.802;2024-03-17T08:35:26;17.63;;;12.75;;
53521;SDS011;39398;48.382;9.802;2024-03-17T08:40:28;18.52;;;12.00;;
53521;SDS011;39398;48.382;9.802;2024-03-17T08:45:29;12.27;;;9.50;;
53521;SDS011;39398;48.382;9.802;2024-03-17T08:50:31;11.25;;;8.77;;
53521;SDS011;39398;48.382;9.802;2024-03-17T08:55:34;13.48;;;8.68;;
53521;SDS011;39398;48.382;9.802;2024-03-17T09:00:36;11.35;;;7.88;;
53521;SDS011;39398;48.382;9.802;2024-03-17T09:05:38;10.82;;;7.35;;
53521;SDS011;39398;48.382;9.802;2024-03-17T09:10:41;10.20;;;7.47;;
53521;SDS011;39398;48.382;9.802;2024-03-17T09:16:01;10.80;;;8.48;;
53521;SDS011;39398;48.382;9.802;2024-03-17T09:21:03;12.00;;;7.97;;
53521;SDS011;39398;48.382;9.802;2024-03-17T09:26:08;9.88;;;7.43;;
53521;SDS011;39398;48.382;9.802;2024-03-17T09:31:12;7.28;;;5.40;;
53521;SDS011;39398;48.382;9.802;2024-03-17T09:36:13;10.75;;;6.97;;
53521;SDS011;39398;48.382;9.802;2024-03-17T09:41:21;8.38;;;5.53;;
53521;SDS011;39398;48.382;9.802;2024-03-17T09:46:25;7.97;;;5.95;;
53521;SDS011;39398;48.382;9.802;2024-03-17T09:51:29;8.20;;;6.15;;
53521;SDS011;39398;48.382;9.802;2024-03-17T09:56:32;8.40;;;5.78;;
53521;SDS011;39398;48.382;9.802;2024-03-17T10:01:34;7.30;;;5.80;;
53521;SDS011;39398;48.382;9.802;2024-03-17T10:06:45;9.05;;;6.38;;
53521;SDS011;39398;48.382;9.802;2024-03-17T10:11:48;7.32;;;5.65;;
53521;SDS011;39398;48.382;9.802;2024-03-17T10:16:51;6.30;;;5.05;;
53521;SDS011;39398;48.382;9.802;2024-03-17T10:21:59;6.50;;;4.80;;
53521;SDS011;39398;48.382;9.802;2024-03-17T10:27:02;7.50;;;4.57;;
53521;SDS011;39398;48.382;9.802;2024-03-17T10:32:04;8.32;;;4.65;;
53521;SDS011;39398;48.382;9.802;2024-03-17T10:37:17;6.78;;;4.40;;
53521;SDS011;39398;48.382;9.802;2024-03-17T10:42:26;5.13;;;3.90;;
53521;SDS011;39398;48.382;9.802;2024-03-17T10:47:31;6.43;;;4.20;;
53521;SDS011;39398;48.382;9.802;2024-03-17T10:52:34;7.20;;;4.80;;
53521;SDS011;39398;48.382;9.802;2024-03-17T10:57:45;6.93;;;4.55;;
53521;SDS011;39398;48.382;9.802;2024-03-17T11:02:49;5.30;;;3.92;;
53521;SDS011;39398;48.382;9.802;2024-03-17T11:07:52;6.40;;;4.10;;
53521;SDS011;39398;48.382;9.802;2024-03-17T11:12:59;6.65;;;4.60;;
53521;SDS011;39398;48.382;9.802;2024-03-17T11:23:10;7.80;;;4.35;;
53521;SDS011;39398;48.382;9.802;2024-03-17T11:54:29;5.95;;;3.30;;
53521;SDS011;39398;48.382;9.802;2024-03-17T11:59:32;7.32;;;2.90;;
53521;SDS011;39398;48.382;9.802;2024-03-17T12:04:38;6.20;;;3.13;;
53521;SDS011;39398;48.382;9.802;2024-03-17T12:09:41;4.82;;;2.40;;
53521;SDS011;39398;48.382;9.802;2024-03-17T12:14:43;5.50;;;2.50;;
53521;SDS011;39398;48.382;9.802;2024-03-17T12:19:45;13.32;;;6.00;;
53521;SDS011;39398;48.382;9.802;2024-03-17T12:24:50;4.15;;;2.90;;
53521;SDS011;39398;48.382;9.802;2024-03-17T12:29:54;5.07;;;3.15;;
53521;SDS011;39398;48.382;9.802;2024-03-17T12:34:57;15.52;;;8.70;;
53521;SDS011;39398;48.382;9.802;2024-03-17T12:40:02;5.20;;;2.47;;
53521;SDS011;39398;48.382;9.802;2024-03-17T12:45:09;5.70;;;2.55;;
53521;SDS011;39398;48.382;9.802;2024-03-17T12:50:11;3.87;;;2.37;;
53521;SDS011;39398;48.382;9.802;2024-03-17T12:55:18;16.02;;;9.13;;
53521;SDS011;39398;48.382;9.802;2024-03-17T13:00:38;7.88;;;2.38;;
53521;SDS011;39398;48.382;9.802;2024-03-17T13:05:39;6.13;;;2.08;;
53521;SDS011;39398;48.382;9.802;2024-03-17T13:10:48;4.57;;;1.85;;
53521;SDS011;39398;48.382;9.802;2024-03-17T13:15:50;5.13;;;1.95;;
53521;SDS011;39398;48.382;9.802;2024-03-17T13:20:51;4.28;;;1.90;;
53521;SDS011;39398;48.382;9.802;2024-03-17T13:25:54;2.40;;;1.60;;
53521;SDS011;39398;48.382;9.802;2024-03-17T13:30:55;29.35;;;19.63;;
53521;SDS011;39398;48.382;9.802;2024-03-17T13:35:57;6.63;;;2.00;;
53521;SDS011;39398;48.382;9.802;2024-03-17T13:40:59;5.78;;;2.00;;
53521;SDS011;39398;48.382;9.802;2024-03-17T13:46:00;4.13;;;1.80;;
53521;SDS011;39398;48.382;9.802;2024-03-17T13:51:04;7.90;;;1.88;;
53521;SDS011;39398;48.382;9.802;2024-03-17T13:56:06;7.28;;;1.90;;
53521;SDS011;39398;48.382;9.802;2024-03-17T14:01:10;3.97;;;2.03;;
53521;SDS011;39398;48.382;9.802;2024-03-17T14:06:12;6.28;;;2.40;;
53521;SDS011;39398;48.382;9.802;2024-03-17T14:11:13;6.20;;;2.17;;
53521;SDS011;39398;48.382;9.802;2024-03-17T14:16:15;5.75;;;1.65;;
53521;SDS011;39398;48.382;9.802;2024-03-17T14:21:17;4.47;;;1.77;;
53521;SDS011;39398;48.382;9.802;2024-03-17T14:26:18;9.07;;;2.47;;
53521;SDS011;39398;48.382;9.802;2024-03-17T14:31:20;6.43;;;2.10;;
53521;SDS011;39398;48.382;9.802;2024-03-17T14:36:22;8.40;;;3.28;;
53521;SDS011;39398;48.382;9.802;2024-03-17T14:41:27;17.42;;;8.95;;
53521;SDS011;39398;48.382;9.802;2024-03-17T14:46:30;4.40;;;1.70;;
53521;SDS011;39398;48.382;9.802;2024-03-17T14:51:32;2.88;;;1.70;;
53521;SDS011;39398;48.382;9.802;2024-03-17T14:56:33;7.88;;;1.98;;
53521;SDS011;39398;48.382;9.802;2024-03-17T15:01:35;2.75;;;1.50;;
53521;SDS011;39398;48.382;9.802;2024-03-17T15:06:36;3.80;;;1.83;;
53521;SDS011;39398;48.382;9.802;2024-03-17T15:11:38;4.13;;;1.65;;
53521;SDS011;39398;48.382;9.802;2024-03-17T15:16:40;4.72;;;1.75;;
53521;SDS011;39398;48.382;9.802;2024-03-17T15:21:42;7.65;;;1.83;;
53521;SDS011;39398;48.382;9.802;2024-03-17T15:26:43;6.22;;;2.42;;
53521;SDS011;39398;48.382;9.802;2024-03-17T15:31:46;5.03;;;1.95;;
53521;SDS011;39398;48.382;9.802;2024-03-17T15:36:48;5.70;;;2.20;;
53521;SDS011;39398;48.382;9.802;2024-03-17T15:41:50;3.13;;;2.30;;
53521;SDS011;39398;48.382;9.802;2024-03-17T15:46:51;4.55;;;2.50;;
53521;SDS011;39398;48.382;9.802;2024-03-17T15:51:53;26.27;;;13.63;;
53521;SDS011;39398;48.382;9.802;2024-03-17T15:56:54;7.90;;;2.53;;
53521;SDS011;39398;48.382;9.802;2024-03-17T16:01:56;5.97;;;2.22;;
53521;SDS011;39398;48.382;9.802;2024-03-17T16:06:58;5.88;;;1.90;;
53521;SDS011;39398;48.382;9.802;2024-03-17T16:11:59;3.97;;;1.70;;
53521;SDS011;39398;48.382;9.802;2024-03-17T16:17:01;2.17;;;1.67;;
53521;SDS011;39398;48.382;9.802;2024-03-17T16:22:04;6.22;;;1.88;;
53521;SDS011;39398;48.382;9.802;2024-03-17T16:27:07;15.63;;;6.22;;
53521;SDS011;39398;48.382;9.802;2024-03-17T16:32:10;3.50;;;1.73;;
53521;SDS011;39398;48.382;9.802;2024-03-17T16:37:11;4.50;;;1.85;;
53521;SDS011;39398;48.382;9.802;2024-03-17T16:42:13;8.23;;;2.10;;
53521;SDS011;39398;48.382;9.802;2024-03-17T16:52:29;4.50;;;1.70;;
53521;SDS011;39398;48.382;9.802;2024-03-17T16:57:32;6.72;;;2.13;;
53521;SDS011;39398;48.382;9.802;2024-03-17T17:02:34;5.82;;;2.00;;
53521;SDS011;39398;48.382;9.802;2024-03-17T17:07:36;8.77;;;2.30;;
53521;SDS011;39398;48.382;9.802;2024-03-17T17:12:37;4.43;;;1.75;;
53521;SDS011;39398;48.382;9.802;2024-03-17T17:17:45;4.15;;;1.63;;
53521;SDS011;39398;48.382;9.802;2024-03-17T17:22:48;6.85;;;2.38;;
53521;SDS011;39398;48.382;9.802;2024-03-17T17:27:49;6.20;;;2.15;;
53521;SDS011;39398;48.382;9.802;2024-03-17T17:32:51;8.25;;;2.42;;
53521;SDS011;39398;48.382;9.802;2024-03-17T17:37:52;6.47;;;2.13;;
53521;SDS011;39398;48.382;9.802;2024-03-17T17:42:54;5.95;;;2.45;;
53521;SDS011;39398;48.382;9.802;2024-03-17T17:47:55;4.72;;;2.38;;
53521;SDS011;39398;48.382;9.802;2024-03-17T17:52:57;7.80;;;2.45;;
53521;SDS011;39398;48.382;9.802;2024-03-17T17:57:59;2.58;;;2.20;;
53521;SDS011;39398;48.382;9.802;2024-03-17T18:03:01;4.75;;;2.33;;
53521;SDS011;39398;48.382;9.802;2024-03-17T18:08:03;5.50;;;2.30;;
53521;SDS011;39398;48.382;9.802;2024-03-17T18:13:05;4.05;;;1.90;;
53521;SDS011;39398;48.382;9.802;2024-03-17T18:18:07;5.05;;;2.00;;
53521;SDS011;39398;48.382;9.802;2024-03-17T18:23:10;4.75;;;1.90;;
53521;SDS011;39398;48.382;9.802;2024-03-17T18:28:11;4.32;;;1.83;;
53521;SDS011;39398;48.382;9.802;2024-03-17T18:33:17;7.85;;;2.10;;
53521;SDS011;39398;48.382;9.802;2024-03-17T18:38:21;6.05;;;1.90;;
53521;SDS011;39398;48.382;9.802;2024-03-17T18:43:23;4.55;;;1.90;;
53521;SDS011;39398;48.382;9.802;2024-03-17T18:48:25;7.88;;;3.63;;
53521;SDS011;39398;48.382;9.802;2024-03-17T18:53:27;5.38;;;2.10;;
53521;SDS011;39398;48.382;9.802;2024-03-17T18:58:29;7.85;;;2.00;;
53521;SDS011;39398;48.382;9.802;2024-03-17T19:03:31;5.90;;;2.70;;
53521;SDS011;39398;48.382;9.802;2024-03-17T19:08:33;8.80;;;2.15;;
53521;SDS011;39398;48.382;9.802;2024-03-17T19:13:35;16.70;;;7.13;;
53521;SDS011;39398;48.382;9.802;2024-03-17T19:18:37;8.52;;;4.43;;
53521;SDS011;39398;48.382;9.802;2024-03-17T19:23:40;8.98;;;3.13;;
53521;SDS011;39398;48.382;9.802;2024-03-17T19:28:46;7.90;;;2.70;;
53521;SDS011;39398;48.382;9.802;2024-03-17T19:33:49;6.95;;;2.83;;
53521;SDS011;39398;48.382;9.802;2024-03-17T19:38:51;10.18;;;3.38;;
53521;SDS011;39398;48.382;9.802;2024-03-17T19:43:53;3.88;;;2.00;;
53521;SDS011;39398;48.382;9.802;2024-03-17T19:48:56;15.77;;;8.27;;
53521;SDS011;39398;48.382;9.802;2024-03-17T19:53:58;4.57;;;2.20;;
53521;SDS011;39398;48.382;9.802;2024-03-17T19:58:59;6.65;;;1.80;;
53521;SDS011;39398;48.382;9.802;2024-03-17T20:04:01;4.68;;;2.22;;
53521;SDS011;39398;48.382;9.802;2024-03-17T20:09:03;7.05;;;2.03;;
53521;SDS011;39398;48.382;9.802;2024-03-17T20:14:04;4.85;;;1.70;;
53521;SDS011;39398;48.382;9.802;2024-03-17T20:19:07;5.68;;;2.60;;
53521;SDS011;39398;48.382;9.802;2024-03-17T20:24:09;4.78;;;2.00;;
53521;SDS011;39398;48.382;9.802;2024-03-17T20:29:12;15.98;;;8.35;;
53521;SDS011;39398;48.382;9.802;2024-03-17T20:34:15;10.00;;;3.38;;
53521;SDS011;39398;48.382;9.802;2024-03-17T20:39:16;5.55;;;2.35;;
53521;SDS011;39398;48.382;9.802;2024-03-17T20:44:18;4.28;;;2.20;;
53521;SDS011;39398;48.382;9.802;2024-03-17T20:49:21;5.70;;;2.28;;
53521;SDS011;39398;48.382;9.802;2024-03-17T20:54:23;6.93;;;2.30;;
53521;SDS011;39398;48.382;9.802;2024-03-17T20:59:25;6.07;;;2.80;;
53521;SDS011;39398;48.382;9.802;2024-03-17T21:04:26;7.65;;;2.58;;
53521;SDS011;39398;48.382;9.802;2024-03-17T21:09:28;5.72;;;2.50;;
53521;SDS011;39398;48.382;9.802;2024-03-17T21:14:30;4.88;;;2.22;;
53521;SDS011;39398;48.382;9.802;2024-03-17T21:19:32;5.53;;;1.95;;
53521;SDS011;39398;48.382;9.802;2024-03-17T21:24:33;20.30;;;10.48;;
53521;SDS011;39398;48.382;9.802;2024-03-17T21:29:36;9.95;;;4.63;;
53521;SDS011;39398;48.382;9.802;2024-03-17T21:34:38;7.28;;;2.60;;
53521;SDS011;39398;48.382;9.802;2024-03-17T21:39:39;5.85;;;2.42;;
53521;SDS011;39398;48.382;9.802;2024-03-17T21:44:41;6.68;;;2.33;;
53521;SDS011;39398;48.382;9.802;2024-03-17T21:49:43;7.65;;;2.50;;
53521;SDS011;39398;48.382;9.802;2024-03-17T21:54:45;6.68;;;2.60;;
53521;SDS011;39398;48.382;9.802;2024-03-17T21:59:50;7.68;;;3.40;;
53521;SDS011;39398;48.382;9.802;2024-03-17T22:04:52;6.55;;;3.20;;
53521;SDS011;39398;48.382;9.802;2024-03-17T22:09:53;4.97;;;2.72;;
53521;SDS011;39398;48.382;9.802;2024-03-17T22:14:56;5.20;;;2.50;;
53521;SDS011;39398;48.382;9.802;2024-03-17T22:19:58;6.28;;;2.90;;
53521;SDS011;39398;48.382;9.802;2024-03-17T22:25:01;5.20;;;2.65;;
53521;SDS011;39398;48.382;9.802;2024-03-17T22:30:02;4.13;;;2.47;;
53521;SDS011;39398;48.382;9.802;2024-03-17T22:35:05;5.18;;;2.72;;
53521;SDS011;39398;48.382;9.802;2024-03-17T22:40:07;6.18;;;2.45;;
53521;SDS011;39398;48.382;9.802;2024-03-17T22:45:10;8.95;;;2.63;;
53521;SDS011;39398;48.382;9.802;2024-03-17T22:50:12;6.15;;;3.20;;
53521;SDS011;39398;48.382;9.802;2024-03-17T22:55:13;6.90;;;3.25;;
53521;SDS011;39398;48.382;9.802;2024-03-17T23:00:15;6.97;;;2.95;;
53521;SDS011;39398;48.382;9.802;2024-03-17T23:05:32;7.22;;;3.58;;
53521;SDS011;39398;48.382;9.802;2024-03-17T23:10:34;10.18;;;3.80;;
53521;SDS011;39398;48.382;9.802;2024-03-17T23:15:35;8.27;;;4.00;;
53521;SDS011;39398;48.382;9.802;2024-03-17T23:20:37;9.70;;;4.13;;
53521;SDS011;39398;48.382;9.802;2024-03-17T23:25:40;8.65;;;3.67;;
53521;SDS011;39398;48.382;9.802;2024-03-17T23:30:42;6.95;;;3.72;;
53521;SDS011;39398;48.382;9.802;2024-03-17T23:35:47;8.55;;;4.18;;
53521;SDS011;39398;48.382;9.802;2024-03-17T23:40:51;9.32;;;3.75;;
53521;SDS011;39398;48.382;9.802;2024-03-17T23:45:53;7.15;;;3.45;;
53521;SDS011;39398;48.382;9.802;2024-03-17T23:50:54;8.95;;;3.55;;
53521;SDS011;39398;48.382;9.802;2024-03-17T23:55:56;8.93;;;3.05;;
